Time;durP1;ratioP1;P1;durP2;ratioP2;P2;SDS_P1;SDS_P2;PMS_P1;PMS_P2;Temp;Humidity;BMP_temperature;BMP_pressure;BME280_temperature;BME280_humidity;BME280_pressure;Samples;Min_cycle;Max_cycle;Signal;HPM_P1;HPM_P2
2022/01/01 00:00:31;;;;;;;33.57;23.47;;;4.70;88.10;;;;;;6334774;28;20215;-61
2022/01/01 00:03:32;;;;;;;35.50;24.67;;;4.90;87.00;;;;;;6368346;27;20196;-60
2022/01/01 00:06:32;;;;;;;33.10;22.77;;;5.30;85.90;;;;;;6317795;28;20287;-61
2022/01/01 00:09:33;;;;;;;29.23;20.50;;;5.40;84.50;;;;;;6350699;27;20185;-61
2022/01/01 00:12:34;;;;;;;26.20;19.17;;;5.60;83.90;;;;;;6314030;28;20244;-61
2022/01/01 00:15:35;;;;;;;32.63;22.23;;;5.70;83.40;;;;;;6297252;28;20196;-61
2022/01/01 00:18:37;;;;;;;31.27;18.80;;;5.70;83.70;;;;;;6348308;28;20207;-61
2022/01/01 00:21:38;;;;;;;26.20;18.10;;;5.70;83.20;;;;;;6304267;28;20221;-62
2022/01/01 00:24:39;;;;;;;30.23;21.03;;;5.60;83.90;;;;;;6314121;28;20193;-62
2022/01/01 00:27:40;;;;;;;21.67;16.67;;;5.50;84.00;;;;;;6317984;28;20203;-61
2022/01/01 00:30:41;;;;;;;29.43;20.23;;;5.40;84.30;;;;;;6365680;27;20207;-61
2022/01/01 00:33:42;;;;;;;31.93;20.00;;;5.40;84.30;;;;;;6314737;28;20242;-62
2022/01/01 00:36:43;;;;;;;23.40;14.23;;;5.40;83.70;;;;;;6302357;28;20193;-62
2022/01/01 00:39:45;;;;;;;24.97;16.13;;;5.40;83.40;;;;;;6337527;28;20252;-61
2022/01/01 00:42:45;;;;;;;19.93;14.93;;;5.30;84.00;;;;;;6343658;27;20303;-61
2022/01/01 00:45:46;;;;;;;21.13;14.30;;;5.30;84.00;;;;;;6330111;28;20181;-61
2022/01/01 00:48:48;;;;;;;19.90;13.67;;;5.30;84.40;;;;;;6298498;28;20177;-62
2022/01/01 00:51:48;;;;;;;15.23;12.03;;;5.30;84.60;;;;;;6349336;28;20225;-61
2022/01/01 00:54:49;;;;;;;16.10;11.60;;;5.50;83.20;;;;;;6356485;27;20188;-61
2022/01/01 00:57:50;;;;;;;15.47;11.40;;;5.60;83.20;;;;;;6349320;28;20208;-61
2022/01/01 01:00:51;;;;;;;21.80;13.20;;;5.70;82.60;;;;;;6313967;28;20232;-61
2022/01/01 01:03:52;;;;;;;17.37;12.47;;;5.60;82.70;;;;;;6297403;28;20184;-62
2022/01/01 01:06:53;;;;;;;17.63;13.17;;;5.60;83.20;;;;;;6330384;28;20190;-61
2022/01/01 01:09:54;;;;;;;19.50;14.13;;;5.50;83.30;;;;;;6316513;28;20240;-61
2022/01/01 01:12:55;;;;;;;18.97;11.87;;;5.60;83.00;;;;;;6337459;28;20236;-61
2022/01/01 01:15:55;;;;;;;15.57;11.33;;;5.50;82.60;;;;;;6297270;28;20272;-61
2022/01/01 01:18:57;;;;;;;19.37;12.00;;;5.60;82.40;;;;;;6330952;28;20193;-62
2022/01/01 01:21:58;;;;;;;14.83;9.70;;;5.70;82.10;;;;;;6334302;28;20231;-61
2022/01/01 01:25:00;;;;;;;15.93;9.73;;;5.60;82.10;;;;;;6336941;28;20199;-62
2022/01/01 01:28:07;;;;;;;10.10;7.63;;;5.70;82.20;;;;;;6311983;28;20280;-61
2022/01/01 01:31:07;;;;;;;13.57;8.60;;;5.80;81.80;;;;;;6288483;28;20200;-61
2022/01/01 01:34:08;;;;;;;11.83;7.13;;;5.90;81.10;;;;;;6324502;28;20191;-61
2022/01/01 01:37:09;;;;;;;10.80;7.07;;;6.00;80.70;;;;;;6300793;28;20283;-61
2022/01/01 01:40:10;;;;;;;12.07;6.77;;;6.00;80.80;;;;;;6304221;28;20235;-61
2022/01/01 01:43:13;;;;;;;7.97;6.57;;;6.20;80.50;;;;;;6317568;28;20203;-62
2022/01/01 01:46:14;;;;;;;9.93;5.70;;;6.10;81.00;;;;;;6317990;28;20189;-62
2022/01/01 01:49:15;;;;;;;7.77;5.60;;;6.10;81.00;;;;;;6306742;28;20197;-62
2022/01/01 01:52:17;;;;;;;7.77;5.73;;;6.00;80.90;;;;;;6346218;27;20209;-61
2022/01/01 01:55:18;;;;;;;4.07;3.40;;;6.30;79.60;;;;;;6328339;28;20208;-62
2022/01/01 01:58:19;;;;;;;6.23;4.30;;;6.50;78.50;;;;;;6324511;28;20192;-60
2022/01/01 02:01:24;;;;;;;4.20;3.50;;;6.60;77.40;;;;;;6317486;28;20296;-61
2022/01/01 02:04:25;;;;;;;4.57;3.10;;;6.80;76.20;;;;;;6303942;28;20257;-61
2022/01/01 02:07:26;;;;;;;3.93;3.20;;;7.10;75.00;;;;;;6288006;28;20201;-60
2022/01/01 02:10:27;;;;;;;3.33;2.83;;;7.40;73.40;;;;;;6336898;27;20205;-62
2022/01/01 02:13:35;;;;;;;3.47;3.00;;;7.60;72.70;;;;;;6292181;28;20213;-62
2022/01/01 02:16:51;;;;;;;5.23;3.63;;;7.80;73.30;;;;;;6277440;28;20200;-62
2022/01/01 02:19:59;;;;;;;4.73;4.10;;;7.90;73.10;;;;;;6250604;28;20229;-61
2022/01/01 02:23:01;;;;;;;5.47;4.10;;;7.80;73.50;;;;;;6283718;28;20193;-61
2022/01/01 02:26:03;;;;;;;5.30;3.57;;;7.60;73.70;;;;;;6307793;28;20225;-61
2022/01/01 02:29:04;;;;;;;3.90;3.23;;;7.50;74.10;;;;;;6315777;28;20194;-61
2022/01/01 02:32:13;;;;;;;4.50;3.10;;;7.30;75.10;;;;;;6275199;28;20211;-61
2022/01/01 02:35:16;;;;;;;4.20;3.03;;;7.20;75.70;;;;;;6295343;28;20246;-60
2022/01/01 02:38:17;;;;;;;3.23;2.73;;;7.10;76.30;;;;;;6281855;28;20197;-60
2022/01/01 02:41:18;;;;;;;3.73;2.50;;;7.00;76.60;;;;;;6258277;28;20251;-60
2022/01/01 02:44:21;;;;;;;3.80;3.00;;;7.10;75.90;;;;;;6274359;28;20194;-60
2022/01/01 02:47:22;;;;;;;3.00;2.07;;;7.20;75.60;;;;;;6308304;28;20209;-60
2022/01/01 02:50:22;;;;;;;3.13;2.57;;;7.30;75.50;;;;;;6274024;28;20197;-60
2022/01/01 02:53:23;;;;;;;3.60;2.57;;;7.30;75.30;;;;;;6280254;28;20212;-60
2022/01/01 02:56:25;;;;;;;2.97;2.00;;;7.30;76.00;;;;;;6274937;28;20196;-60
2022/01/01 02:59:26;;;;;;;3.00;2.10;;;7.30;75.50;;;;;;6293796;28;20198;-60
2022/01/01 03:02:27;;;;;;;2.00;1.80;;;7.50;74.80;;;;;;6251669;28;20236;-60
2022/01/01 03:05:30;;;;;;;2.67;1.90;;;7.40;75.30;;;;;;6295272;28;20280;-61
2022/01/01 03:08:30;;;;;;;3.70;1.77;;;7.40;75.10;;;;;;6301336;28;20247;-61
2022/01/01 03:11:31;;;;;;;3.10;2.20;;;7.40;75.10;;;;;;6286219;28;20237;-61
2022/01/01 03:14:32;;;;;;;3.20;2.70;;;7.30;75.80;;;;;;6293967;28;20197;-60
2022/01/01 03:17:33;;;;;;;2.97;2.47;;;7.10;76.50;;;;;;6319384;28;20197;-60
2022/01/01 03:20:34;;;;;;;3.10;2.23;;;7.00;77.30;;;;;;6282481;28;20228;-62
2022/01/01 03:23:35;;;;;;;2.57;2.00;;;6.90;77.60;;;;;;6257860;28;20216;-61
2022/01/01 03:26:36;;;;;;;3.13;2.17;;;6.80;78.40;;;;;;6305988;28;20192;-61
2022/01/01 03:29:38;;;;;;;2.37;2.00;;;6.70;78.90;;;;;;6322068;28;20248;-61
2022/01/01 03:32:39;;;;;;;3.27;2.40;;;6.70;79.20;;;;;;6256481;28;20202;-61
2022/01/01 03:35:40;;;;;;;2.33;1.80;;;6.70;79.00;;;;;;6290066;28;20664;-61
2022/01/01 03:38:40;;;;;;;2.87;2.23;;;6.60;79.40;;;;;;6277037;28;20196;-63
2022/01/01 03:41:41;;;;;;;2.20;1.60;;;6.60;79.10;;;;;;6282922;28;20224;-62
2022/01/01 03:44:42;;;;;;;1.53;1.40;;;6.50;79.50;;;;;;6303507;28;20196;-62
2022/01/01 03:47:43;;;;;;;2.23;1.57;;;6.40;79.90;;;;;;6285744;28;20188;-61
2022/01/01 03:50:44;;;;;;;2.57;1.80;;;6.40;79.80;;;;;;6268507;28;20197;-60
2022/01/01 03:53:45;;;;;;;1.90;1.60;;;6.30;79.90;;;;;;6269298;28;20239;-61
2022/01/01 03:56:46;;;;;;;2.93;1.80;;;6.20;80.40;;;;;;6319224;28;20207;-61
2022/01/01 03:59:47;;;;;;;2.20;1.97;;;6.10;80.50;;;;;;6267392;28;20196;-61
2022/01/01 04:02:48;;;;;;;2.33;1.93;;;5.90;80.50;;;;;;6320265;28;20238;-61
2022/01/01 04:05:49;;;;;;;2.47;1.90;;;5.80;81.30;;;;;;6317401;28;20201;-60
2022/01/01 04:08:49;;;;;;;2.10;1.87;;;5.60;81.60;;;;;;6308095;28;20193;-61
2022/01/01 04:11:53;;;;;;;2.43;2.20;;;5.60;81.70;;;;;;6268655;28;20784;-60
2022/01/01 04:14:54;;;;;;;2.67;2.07;;;5.60;82.00;;;;;;6317178;28;20225;-60
2022/01/01 04:18:00;;;;;;;4.23;2.80;;;5.50;82.40;;;;;;6273124;28;20197;-61
2022/01/01 04:21:01;;;;;;;3.67;2.57;;;5.50;82.20;;;;;;6271966;28;20252;-62
2022/01/01 04:24:02;;;;;;;3.97;2.87;;;5.40;82.30;;;;;;6289443;28;20181;-62
2022/01/01 04:27:04;;;;;;;3.07;2.40;;;5.30;82.60;;;;;;6270734;28;20263;-62
2022/01/01 04:30:05;;;;;;;3.33;2.40;;;5.40;82.60;;;;;;6264699;28;20193;-62
2022/01/01 04:33:06;;;;;;;4.40;3.03;;;5.30;83.10;;;;;;6315026;28;20214;-61
2022/01/01 04:36:07;;;;;;;4.17;2.67;;;5.30;83.30;;;;;;6314720;28;20192;-61
2022/01/01 04:39:08;;;;;;;4.87;3.10;;;5.20;83.70;;;;;;6280920;28;20200;-62
2022/01/01 04:42:09;;;;;;;3.27;2.63;;;5.10;84.20;;;;;;6311815;28;20223;-61
2022/01/01 04:45:11;;;;;;;4.40;3.30;;;5.00;84.50;;;;;;6278361;28;20260;-61
2022/01/01 04:48:12;;;;;;;4.00;3.57;;;5.10;84.20;;;;;;6272819;28;20192;-61
2022/01/01 04:51:13;;;;;;;3.83;2.93;;;5.10;83.90;;;;;;6306392;28;20200;-61
2022/01/01 04:54:17;;;;;;;2.90;2.33;;;5.00;84.00;;;;;;6272677;28;20210;-61
2022/01/01 04:57:18;;;;;;;4.17;2.47;;;4.90;84.30;;;;;;6260277;28;20251;-61
2022/01/01 05:00:18;;;;;;;3.37;2.37;;;4.90;85.00;;;;;;6288280;28;20216;-61
2022/01/01 05:03:19;;;;;;;2.57;2.37;;;5.00;85.00;;;;;;6285736;28;20188;-61
2022/01/01 05:06:20;;;;;;;2.43;2.20;;;4.90;85.10;;;;;;6318750;28;20227;-61
2022/01/01 05:09:21;;;;;;;2.30;2.10;;;4.80;85.00;;;;;;6305065;28;20221;-61
2022/01/01 05:12:22;;;;;;;2.97;2.50;;;4.80;85.20;;;;;;6305329;28;20849;-61
2022/01/01 05:15:23;;;;;;;3.17;2.17;;;4.80;85.30;;;;;;6355965;27;20199;-61
2022/01/01 05:18:24;;;;;;;1.93;1.67;;;4.70;85.40;;;;;;6323039;28;20185;-61
2022/01/01 05:21:27;;;;;;;2.47;2.23;;;4.80;86.00;;;;;;6335643;28;20216;-61
2022/01/01 05:24:28;;;;;;;2.40;2.00;;;4.80;85.70;;;;;;6329733;28;20195;-61
2022/01/01 05:27:35;;;;;;;2.83;2.40;;;4.70;85.60;;;;;;6326546;28;20183;-61
2022/01/01 05:30:36;;;;;;;2.17;1.77;;;4.70;85.20;;;;;;6295013;28;20197;-61
2022/01/01 05:33:36;;;;;;;2.27;1.83;;;4.60;85.30;;;;;;6318035;28;20195;-61
2022/01/01 05:36:37;;;;;;;2.90;2.07;;;4.50;85.40;;;;;;6334316;28;20198;-61
2022/01/01 05:39:38;;;;;;;2.97;2.13;;;4.40;85.10;;;;;;6337946;28;20188;-61
2022/01/01 05:42:40;;;;;;;2.70;1.70;;;4.40;85.70;;;;;;6326486;28;20224;-61
2022/01/01 05:45:44;;;;;;;12.97;6.37;;;4.40;86.40;;;;;;6360800;27;20175;-61
2022/01/01 05:48:45;;;;;;;12.30;7.73;;;4.40;86.20;;;;;;6325639;28;20291;-61
2022/01/01 05:51:46;;;;;;;8.00;5.00;;;4.40;86.20;;;;;;6306280;28;20203;-61
2022/01/01 05:54:47;;;;;;;6.10;4.13;;;4.30;85.70;;;;;;6359516;27;20203;-61
2022/01/01 05:57:47;;;;;;;6.00;3.87;;;4.30;86.00;;;;;;6316208;28;20651;-61
2022/01/01 06:00:48;;;;;;;4.83;3.80;;;4.30;86.10;;;;;;6334579;28;20212;-61
2022/01/01 06:03:49;;;;;;;4.10;3.20;;;4.20;86.10;;;;;;6318852;28;20219;-61
2022/01/01 06:06:50;;;;;;;5.47;3.80;;;4.20;86.20;;;;;;6299094;28;20244;-61
2022/01/01 06:09:51;;;;;;;5.23;3.97;;;4.20;86.50;;;;;;6300272;28;20189;-61
2022/01/01 06:12:52;;;;;;;5.30;3.63;;;4.10;86.10;;;;;;6317281;28;20263;-61
2022/01/01 06:15:53;;;;;;;3.77;3.03;;;4.00;86.40;;;;;;6352881;27;20222;-61
2022/01/01 06:18:54;;;;;;;5.53;3.43;;;4.00;86.30;;;;;;6323801;28;20227;-61
2022/01/01 06:21:55;;;;;;;5.47;3.60;;;4.00;86.70;;;;;;6334296;28;20219;-61
2022/01/01 06:24:56;;;;;;;4.23;2.77;;;4.10;87.10;;;;;;6334970;28;20189;-61
2022/01/01 06:27:57;;;;;;;3.23;2.50;;;4.10;87.50;;;;;;6317179;28;20194;-61
2022/01/01 06:30:58;;;;;;;3.33;2.70;;;4.10;87.80;;;;;;6316229;28;20192;-60
2022/01/01 06:33:59;;;;;;;4.87;2.40;;;4.10;88.10;;;;;;6339990;28;20262;-61
2022/01/01 06:36:59;;;;;;;3.77;2.77;;;4.10;87.90;;;;;;6285524;28;20202;-60
2022/01/01 06:40:00;;;;;;;2.80;2.60;;;4.20;87.90;;;;;;6336258;28;20244;-60
2022/01/01 06:43:02;;;;;;;2.83;2.13;;;4.10;88.10;;;;;;6304754;28;20221;-61
2022/01/01 06:46:03;;;;;;;2.53;1.57;;;4.10;88.30;;;;;;6325652;28;20192;-60
2022/01/01 06:49:04;;;;;;;3.77;1.70;;;4.30;88.50;;;;;;6315607;28;20206;-60
2022/01/01 06:52:05;;;;;;;2.20;1.37;;;4.30;88.40;;;;;;6315797;28;20193;-60
2022/01/01 06:55:06;;;;;;;2.80;2.20;;;4.40;88.50;;;;;;6317670;28;20196;-61
2022/01/01 06:58:08;;;;;;;2.93;2.40;;;4.60;87.50;;;;;;6282621;28;20241;-59
2022/01/01 07:01:09;;;;;;;4.37;1.57;;;4.60;87.60;;;;;;6298859;28;20212;-61
2022/01/01 07:04:10;;;;;;;3.10;2.23;;;4.60;87.70;;;;;;6311753;28;20188;-61
2022/01/01 07:07:11;;;;;;;4.20;2.27;;;4.70;87.30;;;;;;6353517;27;20199;-61
2022/01/01 07:10:12;;;;;;;3.47;2.50;;;4.60;86.90;;;;;;6294378;28;20196;-62
2022/01/01 07:13:15;;;;;;;2.50;2.30;;;4.70;87.00;;;;;;6273212;28;20316;-61
2022/01/01 07:16:17;;;;;;;3.23;2.40;;;4.70;87.10;;;;;;6267680;28;20189;-62
2022/01/01 07:19:18;;;;;;;2.50;2.30;;;4.70;86.50;;;;;;6330267;28;20199;-61
2022/01/01 07:22:19;;;;;;;3.00;2.40;;;4.70;86.40;;;;;;6281583;28;20208;-61
2022/01/01 07:25:20;;;;;;;5.13;2.27;;;4.70;86.60;;;;;;6247811;28;20205;-61
2022/01/01 07:28:21;;;;;;;2.73;2.33;;;4.70;86.00;;;;;;6310977;28;20272;-61
2022/01/01 07:31:21;;;;;;;2.63;2.20;;;4.70;86.10;;;;;;6282671;28;20203;-60
2022/01/01 07:34:22;;;;;;;3.97;2.50;;;4.80;86.30;;;;;;6304157;28;20197;-61
2022/01/01 07:37:23;;;;;;;3.23;2.20;;;4.80;86.30;;;;;;6301177;28;20192;-61
2022/01/01 07:40:24;;;;;;;3.27;2.57;;;4.80;85.90;;;;;;6294653;28;20219;-61
2022/01/01 07:43:26;;;;;;;2.50;2.17;;;4.90;85.80;;;;;;6304898;28;20242;-60
2022/01/01 07:46:26;;;;;;;4.60;2.37;;;4.90;86.20;;;;;;6293857;28;20181;-61
2022/01/01 07:49:27;;;;;;;3.73;2.50;;;4.90;86.40;;;;;;6285962;28;20197;-61
2022/01/01 07:52:28;;;;;;;3.10;2.57;;;5.00;86.30;;;;;;6292259;28;20193;-60
2022/01/01 07:55:29;;;;;;;3.53;2.53;;;5.00;85.90;;;;;;6296751;28;20198;-62
2022/01/01 07:58:31;;;;;;;3.73;3.00;;;5.10;85.80;;;;;;6250316;28;20266;-62
2022/01/01 08:01:32;;;;;;;4.73;2.63;;;5.10;86.00;;;;;;6292393;28;20228;-61
2022/01/01 08:04:33;;;;;;;3.87;2.87;;;5.20;85.90;;;;;;6307171;28;20200;-62
2022/01/01 08:07:34;;;;;;;4.20;3.13;;;5.30;85.90;;;;;;6273505;28;20242;-61
2022/01/01 08:10:37;;;;;;;3.00;2.60;;;5.30;85.90;;;;;;6313722;28;20244;-61
2022/01/01 08:13:37;;;;;;;5.00;3.07;;;5.50;85.80;;;;;;6326615;28;20273;-60
2022/01/01 08:17:02;;;;;;;2.83;1.97;;;5.60;85.40;;;;;;6283028;28;20203;-61
2022/01/01 08:20:03;;;;;;;4.23;2.30;;;5.70;85.50;;;;;;6303964;28;20231;-60
2022/01/01 08:23:04;;;;;;;3.13;2.40;;;5.80;85.40;;;;;;6296394;28;20220;-61
2022/01/01 08:26:05;;;;;;;3.30;2.30;;;5.90;85.20;;;;;;6289026;28;20191;-62
2022/01/01 08:29:06;;;;;;;3.30;2.47;;;6.10;85.10;;;;;;6326176;28;20285;-62
2022/01/01 08:32:08;;;;;;;2.93;2.40;;;6.20;85.00;;;;;;6342700;28;20195;-62
2022/01/01 08:35:09;;;;;;;3.03;2.43;;;6.30;85.00;;;;;;6344930;28;20237;-61
2022/01/01 08:38:10;;;;;;;4.00;3.13;;;6.30;84.70;;;;;;6299609;28;20201;-61
2022/01/01 08:41:11;;;;;;;6.57;4.23;;;6.30;84.40;;;;;;6320158;28;20219;-62
2022/01/01 08:44:12;;;;;;;6.00;4.00;;;6.40;83.40;;;;;;6289156;28;20208;-62
2022/01/01 08:47:13;;;;;;;5.43;3.80;;;6.40;83.20;;;;;;6305707;28;20659;-61
2022/01/01 08:50:14;;;;;;;4.40;3.93;;;6.40;82.90;;;;;;6307339;28;20236;-61
2022/01/01 08:53:15;;;;;;;4.93;3.50;;;6.50;83.10;;;;;;6279243;28;20193;-61
2022/01/01 08:56:16;;;;;;;5.13;3.90;;;6.50;83.20;;;;;;6305465;28;20211;-61
2022/01/01 08:59:18;;;;;;;5.40;3.70;;;6.50;83.50;;;;;;6325028;28;20192;-60
2022/01/01 09:02:19;;;;;;;7.17;4.23;;;6.60;83.50;;;;;;6323365;27;20213;-61
2022/01/01 09:05:21;;;;;;;7.23;4.00;;;6.70;83.50;;;;;;6164657;28;20240;-61
2022/01/01 09:08:22;;;;;;;6.33;4.47;;;6.80;82.90;;;;;;6255605;28;20269;-61
2022/01/01 09:11:23;;;;;;;5.73;4.33;;;6.90;82.40;;;;;;6267411;28;20244;-60
2022/01/01 09:14:24;;;;;;;6.87;4.70;;;7.00;82.30;;;;;;6259132;28;20220;-60
2022/01/01 09:17:25;;;;;;;7.00;4.23;;;7.10;82.30;;;;;;6291729;28;20195;-61
2022/01/01 09:20:26;;;;;;;7.80;4.57;;;7.20;82.20;;;;;;6278508;28;20205;-60
2022/01/01 09:23:27;;;;;;;5.33;4.20;;;7.30;81.80;;;;;;6300564;28;20192;-63
2022/01/01 09:26:27;;;;;;;7.73;4.77;;;7.40;81.60;;;;;;6306649;28;20193;-61
2022/01/01 09:29:28;;;;;;;5.87;4.33;;;7.50;81.20;;;;;;6284423;28;20276;-62
2022/01/01 09:32:29;;;;;;;8.53;4.83;;;7.70;80.90;;;;;;6272078;28;20198;-63
2022/01/01 09:35:30;;;;;;;6.87;4.63;;;7.80;80.40;;;;;;6282428;28;20254;-61
2022/01/01 09:38:33;;;;;;;7.20;4.60;;;7.90;80.30;;;;;;6284447;28;20189;-62
2022/01/01 09:41:34;;;;;;;6.17;4.57;;;8.00;80.00;;;;;;6299752;28;20217;-63
2022/01/01 09:44:36;;;;;;;6.67;5.10;;;8.10;80.00;;;;;;6285041;28;20258;-61
2022/01/01 09:47:37;;;;;;;5.53;4.77;;;8.20;79.80;;;;;;6284750;28;20244;-62
2022/01/01 09:50:38;;;;;;;6.87;4.67;;;8.30;79.80;;;;;;6259967;28;20188;-62
2022/01/01 09:53:39;;;;;;;6.40;4.97;;;8.40;79.60;;;;;;6281313;28;20189;-61
2022/01/01 09:56:40;;;;;;;7.03;5.00;;;8.50;79.30;;;;;;6278335;28;20205;-62
2022/01/01 09:59:41;;;;;;;6.53;5.33;;;8.50;79.00;;;;;;6281342;28;20203;-62
2022/01/01 10:02:42;;;;;;;8.93;5.20;;;8.70;78.50;;;;;;6271803;28;20221;-62
2022/01/01 10:05:57;;;;;;;7.50;4.90;;;8.80;78.40;;;;;;6272234;28;20208;-62
2022/01/01 10:09:00;;;;;;;7.60;5.57;;;8.80;78.20;;;;;;6283577;28;20288;-62
2022/01/01 10:12:02;;;;;;;9.20;5.73;;;9.00;77.70;;;;;;6299573;28;20232;-63
2022/01/01 10:15:06;;;;;;;6.43;5.03;;;9.20;77.00;;;;;;6308390;28;20220;-62
2022/01/01 10:18:07;;;;;;;8.23;5.37;;;9.30;76.80;;;;;;6325329;28;20188;-63
2022/01/01 10:21:10;;;;;;;7.33;5.63;;;9.30;76.60;;;;;;6307016;28;20240;-62
2022/01/01 10:24:13;;;;;;;7.70;5.53;;;9.40;75.80;;;;;;6334309;28;20195;-63
2022/01/01 10:30:40;;;;;;;7.50;5.17;;;9.70;75.20;;;;;;6283064;28;20228;-63
2022/01/01 10:33:45;;;;;;;9.57;6.13;;;9.70;75.20;;;;;;6304695;28;20197;-62
2022/01/01 10:36:49;;;;;;;8.77;6.50;;;9.80;74.60;;;;;;6340031;28;20252;-62
2022/01/01 10:39:51;;;;;;;8.17;6.80;;;10.00;73.80;;;;;;6289184;28;20192;-63
2022/01/01 10:42:52;;;;;;;10.60;7.43;;;10.10;73.10;;;;;;6271341;28;20213;-62
2022/01/01 10:45:54;;;;;;;8.93;6.87;;;10.20;72.80;;;;;;6322436;28;20398;-63
2022/01/01 10:49:08;;;;;;;8.33;5.80;;;10.30;72.80;;;;;;6272356;28;20194;-63
2022/01/01 10:52:15;;;;;;;7.60;6.23;;;10.50;72.70;;;;;;6266089;28;20189;-63
2022/01/01 10:55:16;;;;;;;7.80;6.53;;;10.60;72.40;;;;;;6288220;28;20192;-62
2022/01/01 10:58:19;;;;;;;7.67;6.23;;;10.70;72.00;;;;;;6305054;28;20192;-63
2022/01/01 11:01:21;;;;;;;9.67;6.83;;;10.80;72.80;;;;;;6322192;28;20236;-62
2022/01/01 11:04:22;;;;;;;7.90;5.97;;;10.90;73.30;;;;;;6306486;28;20185;-62
2022/01/01 11:07:27;;;;;;;9.03;6.17;;;11.00;72.60;;;;;;6288371;28;20200;-62
2022/01/01 11:10:29;;;;;;;9.97;7.07;;;11.10;72.50;;;;;;6314668;28;20231;-63
2022/01/01 11:13:34;;;;;;;10.90;7.73;;;11.30;71.10;;;;;;6322165;28;20207;-63
2022/01/01 11:16:37;;;;;;;10.77;7.47;;;11.60;70.10;;;;;;6338902;28;20193;-63
2022/01/01 11:19:38;;;;;;;10.83;7.70;;;11.70;69.70;;;;;;6272070;28;20195;-63
2022/01/01 11:22:39;;;;;;;12.50;9.23;;;11.80;68.20;;;;;;6305177;28;20231;-62
2022/01/01 11:25:41;;;;;;;11.67;8.93;;;11.90;66.70;;;;;;6263745;28;20272;-62
2022/01/01 11:28:42;;;;;;;10.37;7.67;;;12.10;65.40;;;;;;6305286;28;20234;-62
2022/01/01 11:31:46;;;;;;;10.30;7.87;;;12.20;65.30;;;;;;6288478;28;20192;-62
2022/01/01 11:34:51;;;;;;;9.83;7.70;;;12.40;65.30;;;;;;6286986;28;20193;-62
2022/01/01 11:38:04;;;;;;;11.50;8.00;;;12.50;66.30;;;;;;6321636;28;20220;-62
2022/01/01 11:41:10;;;;;;;9.53;7.50;;;12.60;65.30;;;;;;6321682;28;20243;-62
2022/01/01 11:44:31;;;;;;;8.57;6.03;;;12.70;65.90;;;;;;6305113;28;20197;-62
2022/01/01 11:47:33;;;;;;;9.33;7.27;;;12.90;65.50;;;;;;6286838;28;20511;-62
2022/01/01 11:50:44;;;;;;;11.80;7.97;;;13.00;64.70;;;;;;6271489;28;20188;-62
2022/01/01 11:54:15;;;;;;;9.90;7.93;;;13.30;64.00;;;;;;6272422;28;20283;-62
2022/01/01 11:57:19;;;;;;;12.37;7.40;;;13.50;61.70;;;;;;6305643;28;20189;-62
2022/01/01 12:00:22;;;;;;;9.27;6.90;;;13.80;59.30;;;;;;6303809;28;20181;-62
2022/01/01 12:03:23;;;;;;;9.07;6.57;;;13.90;57.70;;;;;;6338356;28;20192;-62
2022/01/01 12:06:24;;;;;;;13.47;6.37;;;14.20;57.50;;;;;;6286014;28;20189;-62
2022/01/01 12:09:25;;;;;;;10.30;6.53;;;14.40;57.00;;;;;;6304200;28;20187;-62
2022/01/01 12:12:35;;;;;;;9.57;6.50;;;14.60;56.20;;;;;;6278406;28;20243;-62
2022/01/01 12:15:35;;;;;;;9.57;6.73;;;14.70;55.50;;;;;;6267995;28;20211;-62
2022/01/01 12:18:36;;;;;;;7.43;6.40;;;14.80;55.30;;;;;;6286900;28;20191;-62
2022/01/01 12:21:41;;;;;;;8.53;6.23;;;15.00;53.30;;;;;;6290070;28;20282;-62
2022/01/01 12:24:43;;;;;;;6.23;5.37;;;15.20;54.30;;;;;;6316358;28;20209;-62
2022/01/01 12:27:50;;;;;;;8.90;5.90;;;15.20;54.80;;;;;;6303585;28;20188;-62
2022/01/01 12:31:04;;;;;;;7.93;5.40;;;15.30;52.90;;;;;;6296957;28;20205;-62
2022/01/01 12:34:10;;;;;;;8.60;5.60;;;15.40;53.20;;;;;;6306688;28;20189;-62
2022/01/01 12:37:13;;;;;;;7.50;5.67;;;15.50;51.90;;;;;;6286793;28;20214;-62
2022/01/01 12:40:14;;;;;;;9.67;6.03;;;15.60;53.40;;;;;;6283666;28;20198;-62
2022/01/01 12:43:15;;;;;;;7.50;5.73;;;15.80;52.40;;;;;;6269176;28;20251;-62
2022/01/01 12:46:18;;;;;;;7.87;4.73;;;15.80;52.10;;;;;;6299423;28;20203;-62
2022/01/01 12:49:19;;;;;;;5.57;4.53;;;15.90;51.80;;;;;;6311272;28;20223;-62
2022/01/01 12:52:22;;;;;;;6.27;4.33;;;15.90;52.40;;;;;;6256621;28;20208;-63
2022/01/01 12:55:24;;;;;;;4.53;3.93;;;16.00;51.40;;;;;;6283330;28;20293;-62
2022/01/01 12:58:30;;;;;;;4.70;3.97;;;16.00;52.90;;;;;;6291184;28;20243;-62
2022/01/01 13:01:55;;;;;;;4.57;4.10;;;16.00;52.80;;;;;;6311284;28;20209;-62
2022/01/01 13:05:01;;;;;;;5.10;3.93;;;16.00;53.30;;;;;;6322800;28;20189;-62
2022/01/01 13:08:05;;;;;;;5.00;4.13;;;16.10;52.80;;;;;;6306205;28;20272;-61
2022/01/01 13:11:13;;;;;;;5.07;3.80;;;16.20;52.60;;;;;;6308717;28;20268;-62
2022/01/01 13:14:15;;;;;;;3.53;2.87;;;16.20;51.60;;;;;;6318019;28;20334;-62
2022/01/01 13:17:16;;;;;;;3.70;2.70;;;16.30;49.30;;;;;;6270327;28;20201;-61
2022/01/01 13:20:17;;;;;;;3.27;2.70;;;16.30;49.60;;;;;;6282601;28;20194;-62
2022/01/01 13:23:18;;;;;;;4.03;2.67;;;16.50;49.00;;;;;;6279523;28;20217;-62
2022/01/01 13:26:19;;;;;;;3.57;2.30;;;16.80;47.30;;;;;;6294535;28;20243;-62
2022/01/01 13:29:21;;;;;;;4.40;2.90;;;16.80;46.70;;;;;;6288858;28;20193;-62
2022/01/01 13:32:22;;;;;;;3.83;2.90;;;17.10;45.90;;;;;;6284655;28;20194;-62
2022/01/01 13:35:27;;;;;;;4.07;3.03;;;17.30;46.00;;;;;;6297272;28;20195;-61
2022/01/01 13:38:28;;;;;;;4.53;2.83;;;17.50;47.10;;;;;;6326676;28;20213;-62
2022/01/01 13:41:35;;;;;;;4.37;3.20;;;17.80;45.50;;;;;;6326129;28;20484;-62
2022/01/01 13:44:42;;;;;;;3.47;3.03;;;18.80;42.60;;;;;;6303881;28;20185;-62
2022/01/01 13:47:43;;;;;;;3.60;3.03;;;19.60;40.80;;;;;;6277074;28;20181;-61
2022/01/01 13:50:49;;;;;;;6.23;4.03;;;20.00;39.80;;;;;;6269990;28;20212;-61
2022/01/01 13:53:51;;;;;;;4.70;3.60;;;19.90;40.30;;;;;;6301292;28;20218;-61
2022/01/01 13:56:58;;;;;;;3.57;2.87;;;19.80;39.80;;;;;;6309241;28;20193;-61
2022/01/01 14:00:00;;;;;;;4.73;3.00;;;19.80;39.20;;;;;;6350277;27;20192;-60
2022/01/01 14:03:03;;;;;;;4.77;4.10;;;19.60;39.30;;;;;;6327292;28;20267;-62
2022/01/01 14:06:03;;;;;;;4.93;4.30;;;19.40;39.70;;;;;;6297379;28;20197;-61
2022/01/01 14:09:06;;;;;;;5.60;4.57;;;19.20;40.70;;;;;;6291060;28;20268;-61
2022/01/01 14:12:07;;;;;;;7.23;5.03;;;18.70;41.50;;;;;;6311086;28;20232;-62
2022/01/01 14:15:11;;;;;;;5.37;4.23;;;18.60;42.80;;;;;;6302317;28;20232;-61
2022/01/01 14:18:12;;;;;;;5.80;4.20;;;19.20;42.80;;;;;;6311043;28;20299;-62
2022/01/01 14:21:13;;;;;;;6.03;4.43;;;19.50;43.00;;;;;;6288402;28;20246;-61
2022/01/01 14:24:18;;;;;;;4.97;4.20;;;19.50;42.90;;;;;;6291733;28;20266;-61
2022/01/01 14:27:20;;;;;;;6.40;4.87;;;19.50;41.10;;;;;;6284458;28;20190;-61
2022/01/01 14:30:21;;;;;;;8.63;3.87;;;19.60;41.80;;;;;;6302592;28;20204;-61
2022/01/01 14:33:23;;;;;;;4.83;4.10;;;19.80;40.10;;;;;;6292557;28;20196;-62
2022/01/01 14:36:24;;;;;;;4.80;3.70;;;19.90;41.50;;;;;;6321203;28;20193;-57
2022/01/01 14:39:25;;;;;;;5.00;4.50;;;19.90;40.70;;;;;;6308190;28;20196;-57
2022/01/01 14:42:26;;;;;;;6.07;4.50;;;19.60;41.00;;;;;;6296778;28;20269;-60
2022/01/01 14:45:27;;;;;;;5.53;4.70;;;19.70;40.20;;;;;;6303837;28;20732;-61
2022/01/01 14:48:53;;;;;;;6.23;5.00;;;20.00;39.60;;;;;;6308369;28;20200;-60
2022/01/01 14:52:10;;;;;;;7.43;5.00;;;19.60;41.10;;;;;;6341851;28;20189;-60
2022/01/01 14:55:33;;;;;;;4.90;4.03;;;18.70;43.20;;;;;;6307623;28;20199;-61
2022/01/01 14:58:35;;;;;;;4.70;4.20;;;17.60;45.70;;;;;;6308050;28;20181;-61
2022/01/01 15:01:37;;;;;;;5.13;4.60;;;16.60;47.80;;;;;;6288017;28;20862;-65
2022/01/01 15:04:38;;;;;;;6.50;5.13;;;15.70;50.40;;;;;;6300309;28;20300;-63
2022/01/01 15:07:39;;;;;;;7.67;5.43;;;15.00;51.30;;;;;;6308318;28;20200;-64
2022/01/01 15:10:42;;;;;;;6.50;5.13;;;14.30;52.80;;;;;;6299453;28;20236;-64
2022/01/01 15:13:43;;;;;;;6.40;4.73;;;13.80;54.50;;;;;;6300500;28;20196;-64
2022/01/01 15:16:45;;;;;;;6.10;5.27;;;13.30;55.50;;;;;;6290762;28;20200;-64
2022/01/01 15:19:47;;;;;;;7.43;5.00;;;12.90;57.70;;;;;;6307400;28;20180;-63
2022/01/01 15:23:14;;;;;;;6.03;5.10;;;12.60;58.10;;;;;;6324277;28;20266;-63
2022/01/01 15:26:21;;;;;;;6.00;4.70;;;12.30;58.80;;;;;;6341034;28;20367;-63
2022/01/01 15:29:35;;;;;;;6.87;4.97;;;11.90;61.10;;;;;;6294204;28;20200;-63
2022/01/01 15:39:12;;;;;;;7.80;4.53;;;11.30;63.40;;;;;;6278210;28;20199;-64
2022/01/01 15:42:22;;;;;;;6.60;4.50;;;11.00;64.30;;;;;;6292968;28;20209;-63
2022/01/01 15:45:24;;;;;;;8.77;5.73;;;10.80;65.70;;;;;;6294631;28;20204;-62
2022/01/01 15:48:25;;;;;;;7.67;5.30;;;10.70;65.30;;;;;;6295062;28;20191;-62
2022/01/01 15:51:26;;;;;;;5.33;4.57;;;10.60;65.50;;;;;;6289924;28;20283;-62
2022/01/01 15:54:28;;;;;;;9.50;6.33;;;10.30;67.20;;;;;;6301777;28;20226;-62
2022/01/01 15:57:54;;;;;;;10.80;6.53;;;10.30;66.80;;;;;;6290700;28;20234;-62
2022/01/01 16:01:02;;;;;;;10.87;6.60;;;10.00;68.50;;;;;;6274303;28;20210;-62
2022/01/01 16:04:14;;;;;;;6.27;5.27;;;9.80;69.10;;;;;;6304688;28;20231;-62